LAN8059 FAOR-SBGR
Flight info
| Callsign | LAN8059 |
|---|---|
| Flight time | N/A |
| Altitude | 30000 |
| Route | RAGUL1D RAGUL UZ6 AVUSA UQ11 OKTEL DCT 29S010E 30S000E/N0494F320 30S010W 29S020W 27S030W/N0485F340 DCT ATORO DCT EDMUS |
| Aircraft | A346/H-SDE2E3FGHIJ3J4J5M1RWXY/LB1D1 |
Departure
| Time | 2026-05-06 21:35 |
|---|---|
| Airport | O.R. Tambo International Airport (FAOR) |
Arrival
| Time | N/A |
|---|---|
| Airport | São Paulo/Guarulhos–Governor André Franco Montoro International Airport (SBGR) |
| Time | Latitude | Longitude | Altitude | Speed | Heading |
|---|---|---|---|---|---|
| 2026-05-06 21:02 | -26.13021 | 28.23367 | 5573 ft | 0 kts | 321° |
| 2026-05-06 21:21 | -26.13030 | 28.23375 | 5573 ft | 2 kts | 325° |
| 2026-05-06 21:21 | -26.13043 | 28.23384 | 5573 ft | 2 kts | 331° |
| 2026-05-06 21:22 | -26.13056 | 28.23391 | 5573 ft | 2 kts | 336° |
| 2026-05-06 21:22 | -26.13070 | 28.23398 | 5574 ft | 2 kts | 341° |
| 2026-05-06 21:22 | -26.13084 | 28.23403 | 5574 ft | 2 kts | 346° |
| 2026-05-06 21:22 | -26.13099 | 28.23407 | 5575 ft | 2 kts | 351° |
| 2026-05-06 21:23 | -26.13114 | 28.23409 | 5576 ft | 2 kts | 355° |
| 2026-05-06 21:23 | -26.13129 | 28.23410 | 5577 ft | 2 kts | 360° |
| 2026-05-06 21:23 | -26.13143 | 28.23409 | 5578 ft | 2 kts | 4° |
| 2026-05-06 21:23 | -26.13158 | 28.23408 | 5580 ft | 2 kts | 8° |
| 2026-05-06 21:24 | -26.13173 | 28.23405 | 5581 ft | 2 kts | 7° |
| 2026-05-06 21:24 | -26.13186 | 28.23404 | 5582 ft | 0 kts | 7° |
| 2026-05-06 21:27 | -26.13174 | 28.23405 | 5581 ft | 5 kts | 7° |
| 2026-05-06 21:27 | -26.13121 | 28.23441 | 5574 ft | 13 kts | 67° |
| 2026-05-06 21:28 | -26.13121 | 28.23572 | 5560 ft | 21 kts | 99° |
| 2026-05-06 21:28 | -26.13097 | 28.23700 | 5552 ft | 16 kts | 35° |
| 2026-05-06 21:28 | -26.12983 | 28.23746 | 5547 ft | 18 kts | 15° |
| 2026-05-06 21:28 | -26.12855 | 28.23784 | 5545 ft | 18 kts | 14° |
| 2026-05-06 21:29 | -26.12730 | 28.23820 | 5544 ft | 18 kts | 15° |
| 2026-05-06 21:29 | -26.12607 | 28.23858 | 5543 ft | 18 kts | 15° |
| 2026-05-06 21:29 | -26.12483 | 28.23896 | 5543 ft | 18 kts | 16° |
| 2026-05-06 21:29 | -26.12352 | 28.23938 | 5538 ft | 20 kts | 16° |
| 2026-05-06 21:30 | -26.12212 | 28.23983 | 5535 ft | 21 kts | 15° |
| 2026-05-06 21:30 | -26.12076 | 28.24025 | 5535 ft | 20 kts | 15° |
| 2026-05-06 21:30 | -26.11953 | 28.24062 | 5535 ft | 19 kts | 15° |
| 2026-05-06 21:30 | -26.11822 | 28.24103 | 5534 ft | 19 kts | 15° |
| 2026-05-06 21:31 | -26.11692 | 28.24142 | 5533 ft | 19 kts | 15° |
| 2026-05-06 21:31 | -26.11562 | 28.24182 | 5532 ft | 19 kts | 15° |
| 2026-05-06 21:31 | -26.11436 | 28.24220 | 5532 ft | 18 kts | 15° |
| 2026-05-06 21:31 | -26.11310 | 28.24258 | 5529 ft | 19 kts | 15° |
| 2026-05-06 21:32 | -26.11175 | 28.24299 | 5527 ft | 20 kts | 15° |
| 2026-05-06 21:32 | -26.10921 | 28.24377 | 5529 ft | 17 kts | 14° |
| 2026-05-06 21:32 | -26.10809 | 28.24413 | 5529 ft | 14 kts | 31° |
| 2026-05-06 21:33 | -26.10784 | 28.24514 | 5525 ft | 15 kts | 108° |
| 2026-05-06 21:33 | -26.10841 | 28.24593 | 5523 ft | 12 kts | 170° |
| 2026-05-06 21:33 | -26.10919 | 28.24587 | 5524 ft | 2 kts | 194° |
| 2026-05-06 21:33 | -26.10923 | 28.24586 | 5524 ft | 1 kts | 194° |
| 2026-05-06 21:34 | -26.10934 | 28.24583 | 5524 ft | 2 kts | 194° |
| 2026-05-06 21:34 | -26.11074 | 28.24541 | 5525 ft | 50 kts | 196° |
| 2026-05-06 21:34 | -26.11604 | 28.24377 | 5529 ft | 106 kts | 196° |
| 2026-05-06 21:34 | -26.12480 | 28.24106 | 5536 ft | 152 kts | 196° |
| 2026-05-06 21:35 | -26.13645 | 28.23747 | 5560 ft | 190 kts | 197° |
| 2026-05-06 21:35 | -26.14972 | 28.23342 | 5940 ft | 194 kts | 196° |
| 2026-05-06 21:35 | -26.16205 | 28.22944 | 6612 ft | 178 kts | 197° |
| 2026-05-06 21:35 | -26.17360 | 28.22563 | 7120 ft | 172 kts | 196° |
| 2026-05-06 21:36 | -26.18550 | 28.22331 | 7371 ft | 175 kts | 195° |
| 2026-05-06 21:36 | -26.19747 | 28.21972 | 7500 ft | 179 kts | 203° |
| 2026-05-06 21:36 | -26.20953 | 28.21534 | 7639 ft | 185 kts | 204° |
| 2026-05-06 21:36 | -26.22205 | 28.21089 | 7797 ft | 192 kts | 202° |
| 2026-05-06 21:37 | -26.23520 | 28.20656 | 7969 ft | 200 kts | 202° |
| 2026-05-06 21:37 | -26.24904 | 28.20212 | 8150 ft | 209 kts | 202° |
| 2026-05-06 21:37 | -26.26336 | 28.19753 | 8352 ft | 218 kts | 200° |
| 2026-05-06 21:37 | -26.27838 | 28.19280 | 8553 ft | 229 kts | 203° |
| 2026-05-06 21:38 | -26.29189 | 28.18376 | 8744 ft | 230 kts | 231° |
| 2026-05-06 21:38 | -26.29978 | 28.16792 | 8911 ft | 242 kts | 260° |
| 2026-05-06 21:38 | -26.30036 | 28.14880 | 9104 ft | 256 kts | 274° |
| 2026-05-06 21:38 | -26.29915 | 28.12883 | 9099 ft | 260 kts | 271° |
| 2026-05-06 21:39 | -26.29819 | 28.10868 | 9101 ft | 261 kts | 271° |
| 2026-05-06 21:39 | -26.29731 | 28.08852 | 9286 ft | 260 kts | 272° |
| 2026-05-06 21:39 | -26.29642 | 28.06835 | 9615 ft | 261 kts | 272° |
| 2026-05-06 21:39 | -26.29545 | 28.04814 | 9941 ft | 261 kts | 272° |
| 2026-05-06 21:40 | -26.29447 | 28.02800 | 10269 ft | 265 kts | 272° |
| 2026-05-06 21:40 | -26.29346 | 28.00700 | 10599 ft | 277 kts | 272° |
| 2026-05-06 21:40 | -26.29241 | 27.98514 | 10924 ft | 289 kts | 272° |
| 2026-05-06 21:40 | -26.29136 | 27.96238 | 11248 ft | 301 kts | 270° |
| 2026-05-06 21:41 | -26.29311 | 27.93883 | 11566 ft | 312 kts | 259° |
| 2026-05-06 21:41 | -26.29928 | 27.91534 | 11897 ft | 324 kts | 249° |
| 2026-05-06 21:41 | -26.30905 | 27.89210 | 12154 ft | 338 kts | 245° |
| 2026-05-06 21:41 | -26.31970 | 27.86823 | 12456 ft | 349 kts | 245° |
| 2026-05-06 21:42 | -26.33059 | 27.84390 | 12964 ft | 354 kts | 245° |
| 2026-05-06 21:42 | -26.34159 | 27.81935 | 13562 ft | 356 kts | 245° |
| 2026-05-06 21:42 | -26.35262 | 27.79467 | 14125 ft | 359 kts | 245° |
| 2026-05-06 21:42 | -26.36375 | 27.76972 | 14661 ft | 362 kts | 245° |
| 2026-05-06 21:43 | -26.37498 | 27.74452 | 15213 ft | 364 kts | 245° |
| 2026-05-06 21:43 | -26.38623 | 27.71919 | 15746 ft | 367 kts | 245° |
| 2026-05-06 21:43 | -26.39756 | 27.69374 | 16276 ft | 369 kts | 245° |
| 2026-05-06 21:43 | -26.40897 | 27.66803 | 16794 ft | 372 kts | 245° |
| 2026-05-06 21:44 | -26.41660 | 27.65083 | 17117 ft | 374 kts | 245° |
| 2026-05-06 21:44 | -26.43201 | 27.61604 | 17752 ft | 377 kts | 246° |
| 2026-05-06 21:44 | -26.44248 | 27.58929 | 18263 ft | 378 kts | 250° |
| 2026-05-06 21:44 | -26.45136 | 27.56173 | 18777 ft | 379 kts | 253° |
| 2026-05-06 21:45 | -26.45864 | 27.53348 | 19249 ft | 380 kts | 257° |
| 2026-05-06 21:45 | -26.46518 | 27.50483 | 19678 ft | 383 kts | 257° |
| 2026-05-06 21:45 | -26.47166 | 27.47603 | 20180 ft | 384 kts | 257° |
| 2026-05-06 21:45 | -26.47816 | 27.44715 | 20650 ft | 385 kts | 258° |
| 2026-05-06 21:46 | -26.48464 | 27.41814 | 21064 ft | 388 kts | 258° |
| 2026-05-06 21:46 | -26.49117 | 27.38893 | 21489 ft | 390 kts | 258° |
| 2026-05-06 21:46 | -26.49772 | 27.35954 | 21906 ft | 392 kts | 258° |
| 2026-05-06 21:46 | -26.50435 | 27.32978 | 22350 ft | 393 kts | 258° |
| 2026-05-06 21:47 | -26.51095 | 27.30018 | 22830 ft | 394 kts | 259° |
| 2026-05-06 21:47 | -26.51757 | 27.27045 | 23228 ft | 397 kts | 259° |
| 2026-05-06 21:47 | -26.52422 | 27.24048 | 23574 ft | 400 kts | 259° |
| 2026-05-06 21:47 | -26.53091 | 27.21035 | 23972 ft | 401 kts | 259° |
| 2026-05-06 21:48 | -26.53761 | 27.18014 | 24381 ft | 402 kts | 259° |
| 2026-05-06 21:48 | -26.54431 | 27.14983 | 24788 ft | 404 kts | 259° |
| 2026-05-06 21:48 | -26.55107 | 27.11929 | 25148 ft | 406 kts | 259° |
| 2026-05-06 21:48 | -26.55785 | 27.08871 | 25524 ft | 408 kts | 259° |
| 2026-05-06 21:49 | -26.56463 | 27.05793 | 25853 ft | 410 kts | 259° |
| 2026-05-06 21:49 | -26.57145 | 27.02701 | 26242 ft | 411 kts | 259° |
| 2026-05-06 21:49 | -26.57831 | 26.99588 | 26566 ft | 414 kts | 259° |
| 2026-05-06 21:49 | -26.58517 | 26.96470 | 26906 ft | 415 kts | 259° |
| 2026-05-06 21:50 | -26.59204 | 26.93339 | 27194 ft | 418 kts | 259° |
| 2026-05-06 21:50 | -26.59898 | 26.90184 | 27514 ft | 419 kts | 259° |
| 2026-05-06 21:50 | -26.60591 | 26.87027 | 27837 ft | 420 kts | 259° |
| 2026-05-06 21:50 | -26.61285 | 26.83862 | 28229 ft | 420 kts | 259° |
| 2026-05-06 21:51 | -26.61977 | 26.80693 | 28702 ft | 418 kts | 259° |
| 2026-05-06 21:51 | -26.62667 | 26.77540 | 29086 ft | 417 kts | 259° |
| 2026-05-06 21:51 | -26.63355 | 26.74385 | 29408 ft | 418 kts | 259° |
| 2026-05-06 21:51 | -26.64047 | 26.71213 | 29663 ft | 420 kts | 259° |
| 2026-05-06 21:52 | -26.64734 | 26.68055 | 29958 ft | 419 kts | 260° |
| 2026-05-06 21:52 | -26.65423 | 26.64890 | 30108 ft | 421 kts | 260° |
| 2026-05-06 21:52 | -26.66796 | 26.58550 | 30117 ft | 420 kts | 259° |
| 2026-05-06 21:53 | -26.68176 | 26.52199 | 30119 ft | 420 kts | 259° |
| 2026-05-06 21:53 | -26.69551 | 26.45864 | 30123 ft | 421 kts | 259° |
| 2026-05-06 21:54 | -26.70923 | 26.39517 | 30113 ft | 421 kts | 259° |
| 2026-05-06 21:54 | -26.72291 | 26.33160 | 30128 ft | 420 kts | 259° |
| 2026-05-06 21:55 | -26.73661 | 26.26788 | 30107 ft | 421 kts | 259° |
| 2026-05-06 21:55 | -26.75024 | 26.20442 | 30113 ft | 421 kts | 259° |
| 2026-05-06 21:56 | -26.76384 | 26.14083 | 30117 ft | 421 kts | 259° |
| 2026-05-06 21:56 | -26.77740 | 26.07713 | 30120 ft | 421 kts | 259° |
| 2026-05-06 21:57 | -26.79096 | 26.01341 | 30128 ft | 421 kts | 259° |
| 2026-05-06 21:57 | -26.80453 | 25.94954 | 30120 ft | 421 kts | 259° |
| 2026-05-06 21:58 | -26.81806 | 25.88572 | 30118 ft | 421 kts | 259° |
| 2026-05-06 21:58 | -26.83158 | 25.82181 | 30126 ft | 421 kts | 259° |
| 2026-05-06 21:59 | -26.84508 | 25.75767 | 30118 ft | 422 kts | 259° |
| 2026-05-06 21:59 | -26.85857 | 25.69341 | 30104 ft | 424 kts | 259° |
| 2026-05-06 22:00 | -26.87207 | 25.62916 | 30115 ft | 424 kts | 258° |
| 2026-05-06 22:00 | -26.88556 | 25.56470 | 30121 ft | 423 kts | 258° |
| 2026-05-06 22:01 | -26.89897 | 25.50041 | 30120 ft | 424 kts | 258° |
| 2026-05-06 22:01 | -26.91229 | 25.43579 | 30110 ft | 425 kts | 259° |
| 2026-05-06 22:02 | -26.92494 | 25.37086 | 30104 ft | 424 kts | 259° |
| 2026-05-06 22:02 | -26.93744 | 25.30629 | 30127 ft | 424 kts | 259° |
| 2026-05-06 22:03 | -26.94991 | 25.24184 | 30117 ft | 425 kts | 259° |
| 2026-05-06 22:03 | -26.96242 | 25.17726 | 30109 ft | 425 kts | 259° |
| 2026-05-06 22:04 | -26.97482 | 25.11273 | 30110 ft | 424 kts | 259° |
| 2026-05-06 22:04 | -26.98724 | 25.04824 | 30105 ft | 424 kts | 259° |
| 2026-05-06 22:05 | -26.99965 | 24.98358 | 30103 ft | 424 kts | 259° |
| 2026-05-06 22:05 | -27.01199 | 24.91896 | 30115 ft | 425 kts | 259° |
| 2026-05-06 22:06 | -27.02433 | 24.85429 | 30110 ft | 426 kts | 259° |
| 2026-05-06 22:06 | -27.03668 | 24.78944 | 30124 ft | 425 kts | 259° |
| 2026-05-06 22:07 | -27.04899 | 24.72464 | 30111 ft | 427 kts | 259° |
| 2026-05-06 22:07 | -27.06128 | 24.65967 | 30122 ft | 428 kts | 259° |
| 2026-05-06 22:08 | -27.07360 | 24.59445 | 30119 ft | 428 kts | 259° |
| 2026-05-06 22:08 | -27.08586 | 24.52930 | 30142 ft | 428 kts | 259° |
| 2026-05-06 22:09 | -27.09813 | 24.46388 | 30110 ft | 428 kts | 258° |
| 2026-05-06 22:09 | -27.11040 | 24.39849 | 30130 ft | 429 kts | 259° |
| 2026-05-06 22:10 | -27.12261 | 24.33306 | 30137 ft | 429 kts | 259° |
| 2026-05-06 22:10 | -27.13481 | 24.26755 | 30134 ft | 430 kts | 259° |
| 2026-05-06 22:11 | -27.14702 | 24.20191 | 30127 ft | 431 kts | 259° |
| 2026-05-06 22:11 | -27.15918 | 24.13623 | 30142 ft | 430 kts | 259° |
| 2026-05-06 22:12 | -27.17133 | 24.07052 | 30134 ft | 431 kts | 259° |
| 2026-05-06 22:12 | -27.18344 | 24.00474 | 30129 ft | 431 kts | 259° |
| 2026-05-06 22:13 | -27.19551 | 23.93907 | 30141 ft | 430 kts | 259° |
| 2026-05-06 22:13 | -27.20757 | 23.87337 | 30141 ft | 431 kts | 259° |
| 2026-05-06 22:14 | -27.21962 | 23.80732 | 30139 ft | 433 kts | 259° |
| 2026-05-06 22:14 | -27.23168 | 23.74114 | 30132 ft | 432 kts | 259° |
| 2026-05-06 22:15 | -27.24370 | 23.67502 | 30140 ft | 434 kts | 259° |
| 2026-05-06 22:15 | -27.25572 | 23.60868 | 30138 ft | 435 kts | 259° |
| 2026-05-06 22:16 | -27.26774 | 23.54218 | 30127 ft | 435 kts | 258° |
| 2026-05-06 22:16 | -27.27972 | 23.47573 | 30133 ft | 435 kts | 258° |
| 2026-05-06 22:17 | -27.29167 | 23.40909 | 30130 ft | 436 kts | 258° |
| 2026-05-06 22:17 | -27.30367 | 23.34227 | 30132 ft | 437 kts | 259° |
| 2026-05-06 22:18 | -27.31561 | 23.27540 | 30119 ft | 437 kts | 259° |
| 2026-05-06 22:18 | -27.32748 | 23.20876 | 30134 ft | 436 kts | 259° |
| 2026-05-06 22:19 | -27.33934 | 23.14194 | 30130 ft | 437 kts | 259° |
| 2026-05-06 22:19 | -27.35119 | 23.07501 | 30129 ft | 438 kts | 259° |
| 2026-05-06 22:20 | -27.36302 | 23.00803 | 30119 ft | 437 kts | 259° |
| 2026-05-06 22:20 | -27.37481 | 22.94120 | 30128 ft | 437 kts | 258° |
| 2026-05-06 22:21 | -27.38657 | 22.87414 | 30130 ft | 438 kts | 259° |
| 2026-05-06 22:21 | -27.39831 | 22.80704 | 30133 ft | 438 kts | 258° |
| 2026-05-06 22:22 | -27.41003 | 22.73992 | 30124 ft | 439 kts | 259° |
| 2026-05-06 22:22 | -27.42172 | 22.67272 | 30131 ft | 438 kts | 259° |
| 2026-05-06 22:23 | -27.43340 | 22.60543 | 30129 ft | 439 kts | 259° |
| 2026-05-06 22:23 | -27.44506 | 22.53802 | 30131 ft | 439 kts | 259° |
| 2026-05-06 22:24 | -27.45666 | 22.47066 | 30131 ft | 438 kts | 258° |
| 2026-05-06 22:24 | -27.46822 | 22.40346 | 30130 ft | 437 kts | 258° |
| 2026-05-06 22:25 | -27.47970 | 22.33639 | 30136 ft | 438 kts | 259° |
| 2026-05-06 22:25 | -27.49118 | 22.26919 | 30131 ft | 438 kts | 259° |
| 2026-05-06 22:26 | -27.50260 | 22.20206 | 30131 ft | 437 kts | 259° |
| 2026-05-06 22:26 | -27.51398 | 22.13510 | 30130 ft | 437 kts | 259° |
| 2026-05-06 22:27 | -27.52531 | 22.06799 | 30135 ft | 438 kts | 259° |
| 2026-05-06 22:27 | -27.53664 | 22.00076 | 30137 ft | 438 kts | 259° |
| 2026-05-06 22:28 | -27.54792 | 21.93349 | 30136 ft | 438 kts | 259° |
| 2026-05-06 22:28 | -27.55917 | 21.86621 | 30132 ft | 438 kts | 259° |
| 2026-05-06 22:29 | -27.57039 | 21.79903 | 30130 ft | 437 kts | 259° |
| 2026-05-06 22:29 | -27.58153 | 21.73203 | 30145 ft | 436 kts | 259° |
| 2026-05-06 22:30 | -27.59266 | 21.66489 | 30139 ft | 436 kts | 259° |
| 2026-05-06 22:30 | -27.60373 | 21.59788 | 30135 ft | 436 kts | 259° |
| 2026-05-06 22:31 | -27.61477 | 21.53080 | 30135 ft | 436 kts | 258° |
| 2026-05-06 22:31 | -27.62578 | 21.46368 | 30133 ft | 436 kts | 259° |
| 2026-05-06 22:32 | -27.63677 | 21.39656 | 30129 ft | 437 kts | 259° |
| 2026-05-06 22:32 | -27.64780 | 21.32896 | 30139 ft | 437 kts | 259° |
| 2026-05-06 22:33 | -27.65875 | 21.26166 | 30138 ft | 436 kts | 259° |
| 2026-05-06 22:33 | -27.66972 | 21.19415 | 30135 ft | 437 kts | 259° |
| 2026-05-06 22:34 | -27.68060 | 21.12671 | 30139 ft | 437 kts | 259° |
| 2026-05-06 22:34 | -27.69143 | 21.05944 | 30134 ft | 437 kts | 259° |
| 2026-05-06 22:35 | -27.70222 | 20.99212 | 30139 ft | 437 kts | 259° |
| 2026-05-06 22:35 | -27.71298 | 20.92480 | 30136 ft | 437 kts | 258° |
| 2026-05-06 22:36 | -27.72374 | 20.85744 | 30134 ft | 436 kts | 259° |
| 2026-05-06 22:36 | -27.73444 | 20.79008 | 30140 ft | 436 kts | 258° |
| 2026-05-06 22:37 | -27.74515 | 20.72262 | 30140 ft | 436 kts | 259° |
| 2026-05-06 22:37 | -27.75582 | 20.65497 | 30146 ft | 434 kts | 259° |
| 2026-05-06 22:38 | -27.76640 | 20.58769 | 30136 ft | 435 kts | 259° |
| 2026-05-06 22:38 | -27.77689 | 20.52073 | 30150 ft | 434 kts | 258° |
| 2026-05-06 22:39 | -27.78735 | 20.45366 | 30141 ft | 435 kts | 259° |
| 2026-05-06 22:39 | -27.79778 | 20.38654 | 30148 ft | 435 kts | 258° |
| 2026-05-06 22:40 | -27.80823 | 20.31925 | 30147 ft | 435 kts | 259° |
| 2026-05-06 22:40 | -27.81861 | 20.25206 | 30138 ft | 435 kts | 259° |
| 2026-05-06 22:41 | -27.83414 | 20.15122 | 30144 ft | 436 kts | 259° |
| 2026-05-06 22:42 | -27.84445 | 20.08392 | 30143 ft | 435 kts | 259° |
| 2026-05-06 22:42 | -27.85472 | 20.01670 | 30144 ft | 436 kts | 259° |
| 2026-05-06 22:43 | -27.86500 | 19.94917 | 30147 ft | 436 kts | 259° |
| 2026-05-06 22:43 | -27.87528 | 19.88148 | 30140 ft | 436 kts | 259° |
| 2026-05-06 22:44 | -27.88546 | 19.81410 | 30156 ft | 436 kts | 259° |
| 2026-05-06 22:44 | -27.89562 | 19.74672 | 30151 ft | 434 kts | 259° |
| 2026-05-06 22:45 | -27.90569 | 19.67963 | 30156 ft | 434 kts | 259° |
| 2026-05-06 22:45 | -27.91576 | 19.61247 | 30155 ft | 434 kts | 259° |
| 2026-05-06 22:46 | -27.92575 | 19.54542 | 30155 ft | 433 kts | 259° |
| 2026-05-06 22:46 | -27.93574 | 19.47824 | 30156 ft | 435 kts | 259° |
| 2026-05-06 22:47 | -27.94572 | 19.41086 | 30160 ft | 436 kts | 259° |
| 2026-05-06 22:47 | -27.95568 | 19.34337 | 30153 ft | 435 kts | 259° |
| 2026-05-06 22:48 | -27.96562 | 19.27577 | 30164 ft | 435 kts | 259° |
| 2026-05-06 22:48 | -27.97552 | 19.20822 | 30180 ft | 435 kts | 259° |
| 2026-05-06 22:49 | -27.98542 | 19.14048 | 30171 ft | 436 kts | 259° |
| 2026-05-06 22:49 | -27.99529 | 19.07267 | 30179 ft | 436 kts | 259° |
| 2026-05-06 22:50 | -28.00514 | 19.00478 | 30174 ft | 436 kts | 259° |
| 2026-05-06 22:50 | -28.01490 | 18.93716 | 30170 ft | 437 kts | 259° |
| 2026-05-06 22:51 | -28.02461 | 18.86967 | 30169 ft | 435 kts | 259° |
| 2026-05-06 22:51 | -28.03428 | 18.80229 | 30169 ft | 434 kts | 259° |
| 2026-05-06 22:52 | -28.04389 | 18.73503 | 30157 ft | 433 kts | 259° |
| 2026-05-06 22:52 | -28.05346 | 18.66772 | 30170 ft | 435 kts | 259° |
| 2026-05-06 22:53 | -28.06498 | 18.60060 | 30161 ft | 435 kts | 255° |
| 2026-05-06 22:53 | -28.08099 | 18.53474 | 30157 ft | 434 kts | 253° |
| 2026-05-06 22:54 | -28.09759 | 18.46909 | 30167 ft | 434 kts | 253° |
| 2026-05-06 22:54 | -28.11424 | 18.40325 | 30169 ft | 435 kts | 253° |
| 2026-05-06 22:55 | -28.13082 | 18.33759 | 30162 ft | 434 kts | 253° |
| 2026-05-06 22:55 | -28.14733 | 18.27206 | 30164 ft | 434 kts | 253° |
| 2026-05-06 22:56 | -28.16380 | 18.20645 | 30163 ft | 434 kts | 253° |
| 2026-05-06 22:56 | -28.18023 | 18.14087 | 30167 ft | 433 kts | 253° |
| 2026-05-06 22:57 | -28.19665 | 18.07521 | 30176 ft | 433 kts | 253° |
| 2026-05-06 22:57 | -28.21306 | 18.00946 | 30167 ft | 434 kts | 253° |
| 2026-05-06 22:58 | -28.22940 | 17.94376 | 30171 ft | 433 kts | 253° |
| 2026-05-06 22:58 | -28.24567 | 17.87818 | 30178 ft | 434 kts | 253° |
| 2026-05-06 22:59 | -28.26196 | 17.81247 | 30167 ft | 433 kts | 253° |
| 2026-05-06 22:59 | -28.27817 | 17.74686 | 30175 ft | 434 kts | 253° |
| 2026-05-06 23:00 | -28.29436 | 17.68110 | 30173 ft | 434 kts | 253° |
| 2026-05-06 23:00 | -28.31057 | 17.61518 | 30175 ft | 433 kts | 253° |
| 2026-05-06 23:01 | -28.32683 | 17.54889 | 30169 ft | 434 kts | 253° |
| 2026-05-06 23:01 | -28.34295 | 17.48300 | 30167 ft | 434 kts | 253° |
| 2026-05-06 23:02 | -28.35908 | 17.41690 | 30170 ft | 434 kts | 253° |
| 2026-05-06 23:02 | -28.37511 | 17.35101 | 30168 ft | 433 kts | 253° |
| 2026-05-06 23:03 | -28.39114 | 17.28498 | 30162 ft | 434 kts | 253° |
| 2026-05-06 23:03 | -28.40713 | 17.21901 | 30166 ft | 433 kts | 253° |
| 2026-05-06 23:04 | -28.42306 | 17.15304 | 30177 ft | 434 kts | 253° |
| 2026-05-06 23:04 | -28.43896 | 17.08704 | 30170 ft | 434 kts | 253° |
| 2026-05-06 23:05 | -28.45490 | 17.02082 | 30158 ft | 434 kts | 253° |
| 2026-05-06 23:05 | -28.47071 | 16.95489 | 30166 ft | 434 kts | 253° |
| 2026-05-06 23:06 | -28.48654 | 16.88876 | 30180 ft | 434 kts | 253° |
| 2026-05-06 23:06 | -28.50234 | 16.82257 | 30168 ft | 435 kts | 253° |
| 2026-05-06 23:07 | -28.51814 | 16.75618 | 30168 ft | 435 kts | 253° |
| 2026-05-06 23:07 | -28.53385 | 16.68994 | 30174 ft | 435 kts | 253° |
| 2026-05-06 23:08 | -28.54953 | 16.62363 | 30169 ft | 436 kts | 253° |
| 2026-05-06 23:08 | -28.55944 | 16.55557 | 30179 ft | 439 kts | 264° |
| 2026-05-06 23:09 | -28.55496 | 16.48612 | 30186 ft | 446 kts | 276° |
| 2026-05-06 23:09 | -28.53809 | 16.41786 | 30179 ft | 449 kts | 282° |
| 2026-05-06 23:10 | -28.51920 | 16.35026 | 30187 ft | 448 kts | 283° |
| 2026-05-06 23:10 | -28.50016 | 16.28261 | 30173 ft | 447 kts | 283° |
| 2026-05-06 23:11 | -28.48120 | 16.21536 | 30170 ft | 447 kts | 283° |
| 2026-05-06 23:11 | -28.46219 | 16.14826 | 30162 ft | 446 kts | 283° |
| 2026-05-06 23:12 | -28.44319 | 16.08116 | 30168 ft | 446 kts | 283° |
| 2026-05-06 23:12 | -28.42417 | 16.01421 | 30174 ft | 446 kts | 283° |
| 2026-05-06 23:13 | -28.40512 | 15.94721 | 30160 ft | 446 kts | 283° |
| 2026-05-06 23:13 | -28.38608 | 15.88038 | 30160 ft | 446 kts | 283° |
| 2026-05-06 23:14 | -28.36704 | 15.81370 | 30173 ft | 445 kts | 283° |
| 2026-05-06 23:14 | -28.34791 | 15.74682 | 30158 ft | 445 kts | 283° |
| 2026-05-06 23:15 | -28.32877 | 15.68007 | 30168 ft | 444 kts | 283° |
| 2026-05-06 23:15 | -28.30965 | 15.61354 | 30163 ft | 444 kts | 283° |
| 2026-05-06 23:16 | -28.29051 | 15.54706 | 30159 ft | 444 kts | 282° |
| 2026-05-06 23:16 | -28.27137 | 15.48069 | 30164 ft | 443 kts | 283° |
| 2026-05-06 23:17 | -28.25220 | 15.41439 | 30162 ft | 442 kts | 283° |
| 2026-05-06 23:17 | -28.23300 | 15.34806 | 30175 ft | 443 kts | 283° |
| 2026-05-06 23:18 | -28.21377 | 15.28178 | 30162 ft | 443 kts | 283° |
| 2026-05-06 23:18 | -28.19458 | 15.21574 | 30163 ft | 442 kts | 283° |
| 2026-05-06 23:19 | -28.17534 | 15.14967 | 30166 ft | 442 kts | 283° |
| 2026-05-06 23:19 | -28.15604 | 15.08358 | 30162 ft | 442 kts | 283° |
| 2026-05-06 23:20 | -28.14309 | 15.01636 | 30162 ft | 436 kts | 271° |
| 2026-05-06 23:20 | -28.14341 | 14.94853 | 30164 ft | 431 kts | 261° |
| 2026-05-06 23:21 | -28.15443 | 14.88213 | 30165 ft | 429 kts | 256° |
| 2026-05-06 23:21 | -28.16705 | 14.81611 | 30172 ft | 430 kts | 256° |
| 2026-05-06 23:22 | -28.17973 | 14.74996 | 30174 ft | 430 kts | 256° |
| 2026-05-06 23:22 | -28.19242 | 14.68363 | 30172 ft | 430 kts | 256° |
| 2026-05-06 23:23 | -28.20509 | 14.61718 | 30174 ft | 430 kts | 256° |
| 2026-05-06 23:23 | -28.21771 | 14.55085 | 30175 ft | 430 kts | 256° |
| 2026-05-06 23:24 | -28.23026 | 14.48464 | 30171 ft | 430 kts | 256° |
| 2026-05-06 23:24 | -28.24279 | 14.41843 | 30177 ft | 431 kts | 256° |
| 2026-05-06 23:25 | -28.25529 | 14.35215 | 30179 ft | 431 kts | 256° |
| 2026-05-06 23:25 | -28.26778 | 14.28575 | 30181 ft | 432 kts | 256° |
| 2026-05-06 23:26 | -28.28024 | 14.21931 | 30183 ft | 432 kts | 256° |
| 2026-05-06 23:26 | -28.29267 | 14.15285 | 30184 ft | 431 kts | 256° |
| 2026-05-06 23:27 | -28.30505 | 14.08646 | 30183 ft | 430 kts | 256° |
| 2026-05-06 23:27 | -28.31739 | 14.02012 | 30190 ft | 431 kts | 256° |
| 2026-05-06 23:28 | -28.32971 | 13.95367 | 30190 ft | 431 kts | 256° |
| 2026-05-06 23:28 | -28.34201 | 13.88720 | 30186 ft | 431 kts | 256° |
| 2026-05-06 23:29 | -28.35427 | 13.82071 | 30192 ft | 431 kts | 256° |
| 2026-05-06 23:29 | -28.36652 | 13.75411 | 30188 ft | 432 kts | 256° |
| 2026-05-06 23:30 | -28.37872 | 13.68750 | 30193 ft | 432 kts | 256° |
| 2026-05-06 23:30 | -28.39092 | 13.62082 | 30190 ft | 433 kts | 256° |
| 2026-05-06 23:31 | -28.40310 | 13.55398 | 30180 ft | 433 kts | 256° |
| 2026-05-06 23:31 | -28.41524 | 13.48712 | 30182 ft | 432 kts | 256° |
| 2026-05-06 23:32 | -28.42736 | 13.42031 | 30183 ft | 433 kts | 256° |
| 2026-05-06 23:32 | -28.43943 | 13.35350 | 30187 ft | 434 kts | 256° |
| 2026-05-06 23:33 | -28.45150 | 13.28644 | 30190 ft | 434 kts | 256° |
| 2026-05-06 23:33 | -28.46354 | 13.21946 | 30191 ft | 434 kts | 256° |
| 2026-05-06 23:34 | -28.47555 | 13.15244 | 30190 ft | 434 kts | 257° |
| 2026-05-06 23:34 | -28.48751 | 13.08540 | 30190 ft | 433 kts | 256° |
| 2026-05-06 23:35 | -28.49951 | 13.01803 | 30191 ft | 434 kts | 256° |
| 2026-05-06 23:35 | -28.51153 | 12.95033 | 30190 ft | 434 kts | 256° |
| 2026-05-06 23:36 | -28.52348 | 12.88278 | 30190 ft | 433 kts | 256° |
| 2026-05-06 23:36 | -28.53539 | 12.81526 | 30199 ft | 435 kts | 256° |
| 2026-05-06 23:37 | -28.54722 | 12.74801 | 30194 ft | 434 kts | 256° |
| 2026-05-06 23:37 | -28.55898 | 12.68095 | 30205 ft | 434 kts | 256° |
| 2026-05-06 23:38 | -28.57077 | 12.61350 | 30204 ft | 433 kts | 256° |
| 2026-05-06 23:38 | -28.58250 | 12.54622 | 30205 ft | 435 kts | 256° |
| 2026-05-06 23:39 | -28.59420 | 12.47894 | 30204 ft | 434 kts | 256° |
| 2026-05-06 23:39 | -28.60590 | 12.41138 | 30201 ft | 435 kts | 256° |
| 2026-05-06 23:40 | -28.61756 | 12.34390 | 30192 ft | 435 kts | 257° |
| 2026-05-06 23:40 | -28.62918 | 12.27638 | 30209 ft | 436 kts | 257° |
| 2026-05-06 23:41 | -28.64078 | 12.20873 | 30203 ft | 436 kts | 257° |
| 2026-05-06 23:41 | -28.65239 | 12.14090 | 30196 ft | 436 kts | 257° |
| 2026-05-06 23:42 | -28.66394 | 12.07319 | 30209 ft | 435 kts | 257° |
| 2026-05-06 23:42 | -28.67546 | 12.00538 | 30206 ft | 436 kts | 257° |
| 2026-05-06 23:43 | -28.68702 | 11.93724 | 30191 ft | 436 kts | 257° |
| 2026-05-06 23:43 | -28.69853 | 11.86914 | 30203 ft | 435 kts | 257° |
| 2026-05-06 23:44 | -28.70993 | 11.80139 | 30202 ft | 436 kts | 257° |
| 2026-05-06 23:44 | -28.72128 | 11.73382 | 30202 ft | 436 kts | 257° |
| 2026-05-06 23:45 | -28.73262 | 11.66607 | 30195 ft | 436 kts | 257° |
| 2026-05-06 23:45 | -28.74390 | 11.59841 | 30203 ft | 436 kts | 257° |
| 2026-05-06 23:46 | -28.75514 | 11.53081 | 30208 ft | 436 kts | 257° |
| 2026-05-06 23:46 | -28.76637 | 11.46310 | 30203 ft | 435 kts | 257° |
| 2026-05-06 23:47 | -28.77753 | 11.39549 | 30217 ft | 436 kts | 257° |
| 2026-05-06 23:47 | -28.78869 | 11.32771 | 30213 ft | 436 kts | 257° |
| 2026-05-06 23:48 | -28.79980 | 11.26000 | 30216 ft | 436 kts | 257° |
| 2026-05-06 23:48 | -28.81089 | 11.19227 | 30216 ft | 435 kts | 257° |
| 2026-05-06 23:49 | -28.82194 | 11.12453 | 30216 ft | 435 kts | 257° |
| 2026-05-06 23:49 | -28.83295 | 11.05683 | 30218 ft | 435 kts | 257° |
| 2026-05-06 23:50 | -28.84393 | 10.98902 | 30217 ft | 434 kts | 257° |
| 2026-05-06 23:50 | -28.86042 | 10.88676 | 30221 ft | 434 kts | 257° |
| 2026-05-06 23:51 | -28.87134 | 10.81873 | 30225 ft | 434 kts | 257° |
| 2026-05-06 23:51 | -28.88225 | 10.75061 | 30226 ft | 433 kts | 257° |
| 2026-05-06 23:52 | -28.89314 | 10.68244 | 30224 ft | 433 kts | 257° |
| 2026-05-06 23:52 | -28.90388 | 10.61491 | 30235 ft | 433 kts | 257° |
| 2026-05-06 23:53 | -28.91458 | 10.54743 | 30233 ft | 432 kts | 257° |
| 2026-05-06 23:53 | -28.92523 | 10.48002 | 30231 ft | 432 kts | 257° |
| 2026-05-06 23:54 | -28.93583 | 10.41265 | 30233 ft | 432 kts | 257° |
| 2026-05-06 23:54 | -28.94639 | 10.34539 | 30235 ft | 431 kts | 257° |
| 2026-05-06 23:55 | -28.95691 | 10.27813 | 30241 ft | 431 kts | 257° |
| 2026-05-06 23:55 | -28.96739 | 10.21092 | 30234 ft | 431 kts | 257° |
| 2026-05-06 23:56 | -28.97782 | 10.14378 | 30236 ft | 430 kts | 257° |
| 2026-05-06 23:56 | -28.98822 | 10.07659 | 30240 ft | 430 kts | 257° |
| 2026-05-06 23:57 | -28.99858 | 10.00944 | 30246 ft | 429 kts | 257° |
| 2026-05-06 23:57 | -29.00823 | 9.94216 | 30241 ft | 429 kts | 258° |
| 2026-05-06 23:58 | -29.01746 | 9.87455 | 30253 ft | 431 kts | 258° |
| 2026-05-06 23:58 | -29.02672 | 9.80676 | 30240 ft | 431 kts | 258° |
| 2026-05-06 23:59 | -29.03598 | 9.73879 | 30246 ft | 430 kts | 258° |
| 2026-05-06 23:59 | -29.04528 | 9.67057 | 30254 ft | 430 kts | 258° |
| 2026-05-07 00:00 | -29.05451 | 9.60269 | 30257 ft | 431 kts | 258° |
| 2026-05-07 00:00 | -29.06369 | 9.53470 | 30259 ft | 430 kts | 258° |
| 2026-05-07 00:01 | -29.07279 | 9.46715 | 30260 ft | 428 kts | 258° |
| 2026-05-07 00:01 | -29.08178 | 9.40011 | 30259 ft | 427 kts | 257° |
| 2026-05-07 00:02 | -29.09073 | 9.33314 | 30256 ft | 427 kts | 258° |
| 2026-05-07 00:02 | -29.09962 | 9.26621 | 30262 ft | 428 kts | 258° |
| 2026-05-07 00:03 | -29.10854 | 9.19916 | 30259 ft | 427 kts | 258° |
| 2026-05-07 00:03 | -29.11737 | 9.13226 | 30272 ft | 426 kts | 258° |
| 2026-05-07 00:04 | -29.12618 | 9.06529 | 30269 ft | 428 kts | 258° |
| 2026-05-07 00:04 | -29.13499 | 8.99814 | 30263 ft | 428 kts | 258° |
| 2026-05-07 00:05 | -29.14373 | 8.93120 | 30269 ft | 426 kts | 258° |
| 2026-05-07 00:05 | -29.15245 | 8.86423 | 30272 ft | 427 kts | 258° |
| 2026-05-07 00:06 | -29.16112 | 8.79718 | 30273 ft | 428 kts | 258° |
| 2026-05-07 00:06 | -29.16980 | 8.72994 | 30269 ft | 428 kts | 258° |
| 2026-05-07 00:07 | -29.17845 | 8.66267 | 30269 ft | 429 kts | 258° |
| 2026-05-07 00:07 | -29.18709 | 8.59506 | 30268 ft | 429 kts | 258° |
| 2026-05-07 00:08 | -29.19572 | 8.52737 | 30266 ft | 430 kts | 258° |
| 2026-05-07 00:08 | -29.20433 | 8.45944 | 30260 ft | 430 kts | 259° |
| 2026-05-07 00:09 | -29.21293 | 8.39146 | 30260 ft | 430 kts | 259° |
| 2026-05-07 00:09 | -29.22145 | 8.32369 | 30266 ft | 430 kts | 259° |
| 2026-05-07 00:10 | -29.22995 | 8.25591 | 30271 ft | 431 kts | 259° |
| 2026-05-07 00:10 | -29.23839 | 8.18828 | 30286 ft | 431 kts | 259° |
| 2026-05-07 00:11 | -29.24681 | 8.12040 | 30282 ft | 431 kts | 259° |
| 2026-05-07 00:11 | -29.25520 | 8.05268 | 30287 ft | 431 kts | 259° |
| 2026-05-07 00:12 | -29.26356 | 7.98495 | 30289 ft | 431 kts | 259° |
| 2026-05-07 00:12 | -29.27188 | 7.91702 | 30290 ft | 432 kts | 259° |
| 2026-05-07 00:13 | -29.28018 | 7.84915 | 30288 ft | 431 kts | 259° |
| 2026-05-07 00:13 | -29.28843 | 7.78128 | 30288 ft | 432 kts | 259° |
| 2026-05-07 00:14 | -29.29666 | 7.71342 | 30289 ft | 431 kts | 259° |
| 2026-05-07 00:14 | -29.30484 | 7.64556 | 30288 ft | 431 kts | 259° |
| 2026-05-07 00:15 | -29.31298 | 7.57775 | 30289 ft | 430 kts | 259° |
| 2026-05-07 00:15 | -29.32109 | 7.50989 | 30290 ft | 431 kts | 259° |
| 2026-05-07 00:16 | -29.32918 | 7.44200 | 30292 ft | 431 kts | 259° |
| 2026-05-07 00:16 | -29.33721 | 7.37410 | 30292 ft | 431 kts | 259° |